sensor_id;sensor_type;location;lat;lon;timestamp;pressure;altitude;pressure_sealevel;temperature;humidity
71149;BME280;59072;42.144;25.200;2024-02-21T00:01:23;100824.78;;;6.64;100.00
71149;BME280;59072;42.144;25.200;2024-02-21T00:03:49;100840.03;;;6.62;100.00
71149;BME280;59072;42.144;25.200;2024-02-21T00:06:14;100809.03;;;6.23;100.00
71149;BME280;59072;42.144;25.200;2024-02-21T00:08:39;100839.78;;;6.40;100.00
71149;BME280;59072;42.144;25.200;2024-02-21T00:11:05;100850.97;;;6.59;100.00
71149;BME280;59072;42.144;25.200;2024-02-21T00:13:30;100840.88;;;6.54;100.00
71149;BME280;59072;42.144;25.200;2024-02-21T00:15:56;100836.88;;;6.19;100.00
71149;BME280;59072;42.144;25.200;2024-02-21T00:18:22;100828.03;;;5.95;100.00
71149;BME280;59072;42.144;25.200;2024-02-21T00:20:47;100841.97;;;6.29;100.00
71149;BME280;59072;42.144;25.200;2024-02-21T00:23:12;100846.91;;;6.71;100.00
71149;BME280;59072;42.144;25.200;2024-02-21T00:25:38;100833.50;;;6.33;100.00
71149;BME280;59072;42.144;25.200;2024-02-21T00:28:03;100828.63;;;6.14;100.00
71149;BME280;59072;42.144;25.200;2024-02-21T00:30:31;100820.34;;;6.09;100.00
71149;BME280;59072;42.144;25.200;2024-02-21T00:32:56;100832.56;;;6.26;100.00
71149;BME280;59072;42.144;25.200;2024-02-21T00:35:22;100830.81;;;6.02;100.00
71149;BME280;59072;42.144;25.200;2024-02-21T00:37:47;100836.47;;;5.99;100.00
71149;BME280;59072;42.144;25.200;2024-02-21T00:40:12;100815.34;;;6.22;100.00
71149;BME280;59072;42.144;25.200;2024-02-21T00:42:38;100823.47;;;6.52;100.00
71149;BME280;59072;42.144;25.200;2024-02-21T00:45:04;100831.78;;;6.49;100.00
71149;BME280;59072;42.144;25.200;2024-02-21T00:47:29;100822.28;;;6.62;100.00
71149;BME280;59072;42.144;25.200;2024-02-21T00:49:55;100823.72;;;6.73;100.00
71149;BME280;59072;42.144;25.200;2024-02-21T00:52:20;100814.09;;;6.41;100.00
71149;BME280;59072;42.144;25.200;2024-02-21T00:54:46;100826.03;;;6.37;100.00
71149;BME280;59072;42.144;25.200;2024-02-21T00:57:11;100838.41;;;6.53;100.00
71149;BME280;59072;42.144;25.200;2024-02-21T00:59:37;100828.91;;;6.27;100.00
71149;BME280;59072;42.144;25.200;2024-02-21T01:02:02;100839.53;;;6.58;100.00
71149;BME280;59072;42.144;25.200;2024-02-21T01:04:28;100833.66;;;6.71;100.00
71149;BME280;59072;42.144;25.200;2024-02-21T01:06:53;100804.94;;;6.52;100.00
71149;BME280;59072;42.144;25.200;2024-02-21T01:09:19;100800.84;;;6.10;100.00
71149;BME280;59072;42.144;25.200;2024-02-21T01:11:44;100816.59;;;6.03;100.00
71149;BME280;59072;42.144;25.200;2024-02-21T01:14:09;100840.56;;;6.10;100.00
71149;BME280;59072;42.144;25.200;2024-02-21T01:16:36;100820.41;;;6.40;100.00
71149;BME280;59072;42.144;25.200;2024-02-21T01:19:01;100815.84;;;6.26;100.00
71149;BME280;59072;42.144;25.200;2024-02-21T01:21:27;100820.66;;;6.22;100.00
71149;BME280;59072;42.144;25.200;2024-02-21T01:23:53;100835.09;;;6.51;100.00
71149;BME280;59072;42.144;25.200;2024-02-21T01:26:19;100813.03;;;6.19;100.00
71149;BME280;59072;42.144;25.200;2024-02-21T01:28:44;100822.97;;;6.17;100.00
71149;BME280;59072;42.144;25.200;2024-02-21T01:31:10;100831.00;;;6.71;100.00
71149;BME280;59072;42.144;25.200;2024-02-21T01:33:35;100809.91;;;6.55;100.00
71149;BME280;59072;42.144;25.200;2024-02-21T01:36:04;100815.59;;;6.75;100.00
71149;BME280;59072;42.144;25.200;2024-02-21T01:38:32;100808.94;;;6.48;100.00
71149;BME280;59072;42.144;25.200;2024-02-21T01:40:57;100824.91;;;6.71;100.00
71149;BME280;59072;42.144;25.200;2024-02-21T01:43:22;100831.81;;;7.03;100.00
71149;BME280;59072;42.144;25.200;2024-02-21T01:45:57;100799.91;;;6.65;100.00
71149;BME280;59072;42.144;25.200;2024-02-21T01:48:23;100800.03;;;6.40;100.00
71149;BME280;59072;42.144;25.200;2024-02-21T01:50:49;100800.94;;;6.56;100.00
71149;BME280;59072;42.144;25.200;2024-02-21T01:53:20;100802.13;;;6.53;100.00
71149;BME280;59072;42.144;25.200;2024-02-21T01:55:47;100811.59;;;6.79;100.00
71149;BME280;59072;42.144;25.200;2024-02-21T01:58:16;100789.91;;;6.75;100.00
71149;BME280;59072;42.144;25.200;2024-02-21T02:00:44;100819.38;;;6.80;100.00
71149;BME280;59072;42.144;25.200;2024-02-21T02:03:11;100796.88;;;6.76;100.00
71149;BME280;59072;42.144;25.200;2024-02-21T02:05:51;100798.69;;;6.44;100.00
71149;BME280;59072;42.144;25.200;2024-02-21T02:08:18;100806.03;;;6.34;100.00
71149;BME280;59072;42.144;25.200;2024-02-21T02:10:45;100801.38;;;6.36;100.00
71149;BME280;59072;42.144;25.200;2024-02-21T02:13:11;100793.50;;;6.20;100.00
71149;BME280;59072;42.144;25.200;2024-02-21T02:15:48;100779.91;;;6.23;100.00
71149;BME280;59072;42.144;25.200;2024-02-21T02:18:15;100801.97;;;6.15;100.00
71149;BME280;59072;42.144;25.200;2024-02-21T02:20:41;100774.06;;;5.96;100.00
71149;BME280;59072;42.144;25.200;2024-02-21T02:25:39;100795.94;;;5.74;100.00
71149;BME280;59072;42.144;25.200;2024-02-21T02:28:07;100800.53;;;5.88;100.00
71149;BME280;59072;42.144;25.200;2024-02-21T02:30:33;100801.78;;;6.17;100.00
71149;BME280;59072;42.144;25.200;2024-02-21T02:33:00;100782.06;;;6.28;100.00
71149;BME280;59072;42.144;25.200;2024-02-21T02:35:25;100785.91;;;6.17;100.00
71149;BME280;59072;42.144;25.200;2024-02-21T02:37:50;100807.25;;;6.23;100.00
71149;BME280;59072;42.144;25.200;2024-02-21T02:40:17;100791.72;;;6.43;100.00
71149;BME280;59072;42.144;25.200;2024-02-21T02:42:43;100799.03;;;6.41;100.00
71149;BME280;59072;42.144;25.200;2024-02-21T02:45:09;100806.06;;;6.26;100.00
71149;BME280;59072;42.144;25.200;2024-02-21T02:47:35;100800.78;;;6.26;100.00
71149;BME280;59072;42.144;25.200;2024-02-21T02:50:00;100803.09;;;6.21;100.00
71149;BME280;59072;42.144;25.200;2024-02-21T02:52:26;100770.69;;;6.11;100.00
71149;BME280;59072;42.144;25.200;2024-02-21T02:54:51;100800.06;;;6.32;100.00
71149;BME280;59072;42.144;25.200;2024-02-21T02:57:18;100795.72;;;6.39;100.00
71149;BME280;59072;42.144;25.200;2024-02-21T02:59:50;100786.19;;;6.30;100.00
71149;BME280;59072;42.144;25.200;2024-02-21T03:02:16;100795.91;;;6.38;100.00
71149;BME280;59072;42.144;25.200;2024-02-21T03:04:43;100802.31;;;6.43;100.00
71149;BME280;59072;42.144;25.200;2024-02-21T03:07:09;100782.34;;;5.85;100.00
71149;BME280;59072;42.144;25.200;2024-02-21T03:09:34;100804.75;;;5.66;100.00
71149;BME280;59072;42.144;25.200;2024-02-21T03:11:59;100758.97;;;5.41;100.00
71149;BME280;59072;42.144;25.200;2024-02-21T03:14:28;100761.47;;;5.10;100.00
71149;BME280;59072;42.144;25.200;2024-02-21T03:16:54;100784.13;;;5.20;100.00
71149;BME280;59072;42.144;25.200;2024-02-21T03:19:19;100799.81;;;5.30;100.00
71149;BME280;59072;42.144;25.200;2024-02-21T03:21:45;100789.38;;;5.53;100.00
71149;BME280;59072;42.144;25.200;2024-02-21T03:24:10;100798.19;;;5.29;100.00
71149;BME280;59072;42.144;25.200;2024-02-21T03:26:35;100780.81;;;5.02;100.00
71149;BME280;59072;42.144;25.200;2024-02-21T03:29:01;100790.06;;;5.22;100.00
71149;BME280;59072;42.144;25.200;2024-02-21T03:31:26;100808.09;;;5.35;100.00
71149;BME280;59072;42.144;25.200;2024-02-21T03:33:52;100818.44;;;5.78;100.00
71149;BME280;59072;42.144;25.200;2024-02-21T03:36:17;100792.94;;;5.85;100.00
71149;BME280;59072;42.144;25.200;2024-02-21T03:38:43;100809.81;;;5.84;100.00
71149;BME280;59072;42.144;25.200;2024-02-21T03:41:08;100808.50;;;5.72;100.00
71149;BME280;59072;42.144;25.200;2024-02-21T03:43:34;100804.44;;;5.44;100.00
71149;BME280;59072;42.144;25.200;2024-02-21T03:45:59;100800.13;;;5.02;100.00
71149;BME280;59072;42.144;25.200;2024-02-21T03:48:24;100790.88;;;5.23;100.00
71149;BME280;59072;42.144;25.200;2024-02-21T03:50:50;100808.75;;;5.46;100.00
71149;BME280;59072;42.144;25.200;2024-02-21T03:53:16;100779.84;;;5.19;100.00
71149;BME280;59072;42.144;25.200;2024-02-21T03:55:41;100796.34;;;5.38;100.00
71149;BME280;59072;42.144;25.200;2024-02-21T03:58:07;100804.44;;;5.44;100.00
71149;BME280;59072;42.144;25.200;2024-02-21T04:00:32;100795.84;;;5.42;100.00
71149;BME280;59072;42.144;25.200;2024-02-21T04:02:57;100806.94;;;5.38;100.00
71149;BME280;59072;42.144;25.200;2024-02-21T04:05:23;100804.59;;;5.27;100.00
71149;BME280;59072;42.144;25.200;2024-02-21T04:07:48;100813.19;;;5.20;100.00
71149;BME280;59072;42.144;25.200;2024-02-21T04:10:13;100792.72;;;5.14;100.00
71149;BME280;59072;42.144;25.200;2024-02-21T04:12:39;100812.34;;;4.87;100.00
71149;BME280;59072;42.144;25.200;2024-02-21T04:15:04;100792.03;;;4.79;100.00
71149;BME280;59072;42.144;25.200;2024-02-21T04:17:31;100815.34;;;5.00;100.00
71149;BME280;59072;42.144;25.200;2024-02-21T04:20:04;100813.03;;;5.06;100.00
71149;BME280;59072;42.144;25.200;2024-02-21T04:22:33;100820.78;;;4.74;100.00
71149;BME280;59072;42.144;25.200;2024-02-21T04:25:00;100804.91;;;4.74;100.00
71149;BME280;59072;42.144;25.200;2024-02-21T04:27:25;100784.09;;;4.88;100.00
71149;BME280;59072;42.144;25.200;2024-02-21T04:29:50;100804.28;;;5.21;100.00
71149;BME280;59072;42.144;25.200;2024-02-21T04:32:16;100819.34;;;5.29;100.00
71149;BME280;59072;42.144;25.200;2024-02-21T04:34:41;100814.88;;;5.30;100.00
71149;BME280;59072;42.144;25.200;2024-02-21T04:37:07;100802.97;;;5.26;100.00
71149;BME280;59072;42.144;25.200;2024-02-21T04:39:32;100802.97;;;5.26;100.00
71149;BME280;59072;42.144;25.200;2024-02-21T04:41:58;100810.56;;;5.20;100.00
71149;BME280;59072;42.144;25.200;2024-02-21T04:44:23;100796.50;;;5.12;100.00
71149;BME280;59072;42.144;25.200;2024-02-21T04:46:48;100793.88;;;5.28;100.00
71149;BME280;59072;42.144;25.200;2024-02-21T04:49:14;100823.94;;;5.60;100.00
71149;BME280;59072;42.144;25.200;2024-02-21T04:51:40;100807.59;;;5.40;100.00
71149;BME280;59072;42.144;25.200;2024-02-21T04:54:06;100825.94;;;5.41;100.00
71149;BME280;59072;42.144;25.200;2024-02-21T04:56:31;100827.09;;;5.31;100.00
71149;BME280;59072;42.144;25.200;2024-02-21T04:58:57;100808.56;;;4.90;100.00
71149;BME280;59072;42.144;25.200;2024-02-21T05:01:22;100812.84;;;4.82;100.00
71149;BME280;59072;42.144;25.200;2024-02-21T05:03:48;100813.53;;;5.09;100.00
71149;BME280;59072;42.144;25.200;2024-02-21T05:06:13;100813.13;;;4.63;100.00
71149;BME280;59072;42.144;25.200;2024-02-21T05:08:40;100839.06;;;4.76;100.00
71149;BME280;59072;42.144;25.200;2024-02-21T05:11:05;100822.94;;;4.95;100.00
71149;BME280;59072;42.144;25.200;2024-02-21T05:13:30;100831.53;;;4.97;100.00
71149;BME280;59072;42.144;25.200;2024-02-21T05:15:56;100846.38;;;4.98;100.00
71149;BME280;59072;42.144;25.200;2024-02-21T05:18:21;100843.91;;;4.89;100.00
71149;BME280;59072;42.144;25.200;2024-02-21T05:20:47;100841.94;;;4.82;100.00
71149;BME280;59072;42.144;25.200;2024-02-21T05:23:12;100817.22;;;4.49;100.00
71149;BME280;59072;42.144;25.200;2024-02-21T05:25:37;100831.38;;;4.91;100.00
71149;BME280;59072;42.144;25.200;2024-02-21T05:28:03;100853.66;;;5.04;100.00
71149;BME280;59072;42.144;25.200;2024-02-21T05:30:30;100834.34;;;5.04;100.00
71149;BME280;59072;42.144;25.200;2024-02-21T05:32:56;100848.22;;;5.06;100.00
71149;BME280;59072;42.144;25.200;2024-02-21T05:35:26;100856.81;;;5.16;100.00
71149;BME280;59072;42.144;25.200;2024-02-21T05:37:52;100831.84;;;4.86;100.00
71149;BME280;59072;42.144;25.200;2024-02-21T05:40:18;100835.66;;;5.00;100.00
71149;BME280;59072;42.144;25.200;2024-02-21T05:42:43;100839.63;;;4.96;100.00
71149;BME280;59072;42.144;25.200;2024-02-21T05:45:09;100844.84;;;4.71;100.00
71149;BME280;59072;42.144;25.200;2024-02-21T05:47:34;100832.28;;;4.65;100.00
71149;BME280;59072;42.144;25.200;2024-02-21T05:49:59;100839.94;;;4.76;100.00
71149;BME280;59072;42.144;25.200;2024-02-21T05:52:25;100840.91;;;4.25;100.00
71149;BME280;59072;42.144;25.200;2024-02-21T05:54:50;100846.06;;;4.00;100.00
71149;BME280;59072;42.144;25.200;2024-02-21T05:57:17;100853.16;;;3.99;100.00
71149;BME280;59072;42.144;25.200;2024-02-21T05:59:43;100864.41;;;4.36;100.00
71149;BME280;59072;42.144;25.200;2024-02-21T06:02:09;100867.44;;;4.15;100.00
71149;BME280;59072;42.144;25.200;2024-02-21T06:04:34;100841.41;;;3.94;100.00
71149;BME280;59072;42.144;25.200;2024-02-21T06:07:00;100862.16;;;4.15;100.00
71149;BME280;59072;42.144;25.200;2024-02-21T06:09:26;100884.47;;;4.29;100.00
71149;BME280;59072;42.144;25.200;2024-02-21T06:11:52;100855.81;;;4.34;100.00
71149;BME280;59072;42.144;25.200;2024-02-21T06:14:17;100852.28;;;4.68;100.00
71149;BME280;59072;42.144;25.200;2024-02-21T06:16:43;100872.00;;;5.06;100.00
71149;BME280;59072;42.144;25.200;2024-02-21T06:19:09;100880.13;;;5.21;100.00
71149;BME280;59072;42.144;25.200;2024-02-21T06:21:34;100892.88;;;5.26;100.00
71149;BME280;59072;42.144;25.200;2024-02-21T06:24:07;100865.56;;;5.00;100.00
71149;BME280;59072;42.144;25.200;2024-02-21T06:26:32;100858.41;;;4.68;100.00
71149;BME280;59072;42.144;25.200;2024-02-21T06:28:58;100868.00;;;4.86;100.00
71149;BME280;59072;42.144;25.200;2024-02-21T06:31:25;100875.53;;;5.31;100.00
71149;BME280;59072;42.144;25.200;2024-02-21T06:33:50;100901.34;;;5.54;100.00
71149;BME280;59072;42.144;25.200;2024-02-21T06:36:16;100890.25;;;5.34;100.00
71149;BME280;59072;42.144;25.200;2024-02-21T06:38:41;100888.91;;;5.13;100.00
71149;BME280;59072;42.144;25.200;2024-02-21T06:41:17;100900.47;;;5.37;100.00
71149;BME280;59072;42.144;25.200;2024-02-21T06:43:45;100913.06;;;5.68;100.00
71149;BME280;59072;42.144;25.200;2024-02-21T06:46:11;100912.75;;;5.71;100.00
71149;BME280;59072;42.144;25.200;2024-02-21T06:48:36;100886.59;;;5.68;100.00
71149;BME280;59072;42.144;25.200;2024-02-21T06:51:02;100885.91;;;5.82;100.00
71149;BME280;59072;42.144;25.200;2024-02-21T06:53:28;100901.13;;;6.13;100.00
71149;BME280;59072;42.144;25.200;2024-02-21T06:55:54;100873.66;;;6.14;100.00
71149;BME280;59072;42.144;25.200;2024-02-21T06:58:19;100904.69;;;6.44;100.00
71149;BME280;59072;42.144;25.200;2024-02-21T07:00:44;100901.88;;;6.77;100.00
71149;BME280;59072;42.144;25.200;2024-02-21T07:03:10;100872.41;;;6.80;100.00
71149;BME280;59072;42.144;25.200;2024-02-21T07:05:35;100880.63;;;6.86;100.00
71149;BME280;59072;42.144;25.200;2024-02-21T07:08:01;100908.53;;;7.04;100.00
71149;BME280;59072;42.144;25.200;2024-02-21T07:10:26;100886.97;;;7.08;100.00
71149;BME280;59072;42.144;25.200;2024-02-21T07:12:54;100903.66;;;7.16;100.00
71149;BME280;59072;42.144;25.200;2024-02-21T07:15:20;100900.59;;;7.28;100.00
71149;BME280;59072;42.144;25.200;2024-02-21T07:17:45;100881.84;;;7.29;100.00
71149;BME280;59072;42.144;25.200;2024-02-21T07:20:11;100911.50;;;7.33;100.00
71149;BME280;59072;42.144;25.200;2024-02-21T07:22:36;100894.81;;;7.47;100.00
71149;BME280;59072;42.144;25.200;2024-02-21T07:25:02;100896.91;;;7.52;100.00
71149;BME280;59072;42.144;25.200;2024-02-21T07:27:27;100898.88;;;7.58;100.00
71149;BME280;59072;42.144;25.200;2024-02-21T07:29:56;100914.22;;;7.71;100.00
71149;BME280;59072;42.144;25.200;2024-02-21T07:32:21;100860.09;;;7.34;100.00
71149;BME280;59072;42.144;25.200;2024-02-21T07:34:46;100903.13;;;7.82;100.00
71149;BME280;59072;42.144;25.200;2024-02-21T07:37:12;100901.91;;;8.08;100.00
71149;BME280;59072;42.144;25.200;2024-02-21T07:39:38;100908.84;;;8.09;100.00
71149;BME280;59072;42.144;25.200;2024-02-21T07:42:04;100911.16;;;8.12;100.00
71149;BME280;59072;42.144;25.200;2024-02-21T07:44:29;100912.41;;;7.86;100.00
71149;BME280;59072;42.144;25.200;2024-02-21T07:46:57;100912.38;;;8.54;100.00
71149;BME280;59072;42.144;25.200;2024-02-21T07:49:22;100883.63;;;8.42;100.00
71149;BME280;59072;42.144;25.200;2024-02-21T07:51:47;100882.50;;;8.52;100.00
71149;BME280;59072;42.144;25.200;2024-02-21T07:54:13;100903.88;;;8.58;100.00
71149;BME280;59072;42.144;25.200;2024-02-21T07:56:38;100903.56;;;8.68;100.00
71149;BME280;59072;42.144;25.200;2024-02-21T07:59:04;100919.69;;;8.81;100.00
71149;BME280;59072;42.144;25.200;2024-02-21T08:01:29;100875.50;;;9.02;100.00
71149;BME280;59072;42.144;25.200;2024-02-21T08:03:54;100908.00;;;9.34;100.00
71149;BME280;59072;42.144;25.200;2024-02-21T08:06:20;100908.56;;;9.51;100.00
71149;BME280;59072;42.144;25.200;2024-02-21T08:08:45;100916.59;;;9.79;100.00
71149;BME280;59072;42.144;25.200;2024-02-21T08:11:11;100937.53;;;9.89;100.00
71149;BME280;59072;42.144;25.200;2024-02-21T08:13:36;100921.78;;;9.65;100.00
71149;BME280;59072;42.144;25.200;2024-02-21T08:16:01;100927.59;;;9.76;100.00
71149;BME280;59072;42.144;25.200;2024-02-21T08:18:28;100910.81;;;10.03;100.00
71149;BME280;59072;42.144;25.200;2024-02-21T08:20:53;100922.66;;;10.29;100.00
71149;BME280;59072;42.144;25.200;2024-02-21T08:23:23;100937.63;;;10.58;100.00
71149;BME280;59072;42.144;25.200;2024-02-21T08:25:48;100923.94;;;10.33;100.00
71149;BME280;59072;42.144;25.200;2024-02-21T08:28:13;100934.75;;;10.60;100.00
71149;BME280;59072;42.144;25.200;2024-02-21T08:30:39;100924.66;;;10.97;100.00
71149;BME280;59072;42.144;25.200;2024-02-21T08:33:04;100937.88;;;11.18;100.00
71149;BME280;59072;42.144;25.200;2024-02-21T08:35:30;100937.38;;;10.95;100.00
71149;BME280;59072;42.144;25.200;2024-02-21T08:37:55;100909.41;;;10.77;100.00
71149;BME280;59072;42.144;25.200;2024-02-21T08:40:20;100919.38;;;11.17;100.00
71149;BME280;59072;42.144;25.200;2024-02-21T08:42:47;100933.38;;;11.32;97.49
71149;BME280;59072;42.144;25.200;2024-02-21T08:45:12;100910.16;;;11.33;96.87
71149;BME280;59072;42.144;25.200;2024-02-21T08:47:41;100877.47;;;11.17;97.78
71149;BME280;59072;42.144;25.200;2024-02-21T08:50:07;100927.25;;;11.45;94.50
71149;BME280;59072;42.144;25.200;2024-02-21T08:52:35;100918.19;;;11.33;97.88
71149;BME280;59072;42.144;25.200;2024-02-21T08:55:00;100913.66;;;11.33;94.63
71149;BME280;59072;42.144;25.200;2024-02-21T08:57:26;100905.03;;;11.38;93.35
71149;BME280;59072;42.144;25.200;2024-02-21T08:59:52;100929.28;;;11.56;96.36
71149;BME280;59072;42.144;25.200;2024-02-21T09:02:17;100937.13;;;11.84;93.21
71149;BME280;59072;42.144;25.200;2024-02-21T09:04:43;100921.75;;;12.00;94.34
71149;BME280;59072;42.144;25.200;2024-02-21T09:07:11;100905.47;;;11.68;93.61
71149;BME280;59072;42.144;25.200;2024-02-21T09:09:37;100888.22;;;11.91;91.74
71149;BME280;59072;42.144;25.200;2024-02-21T09:12:05;100934.69;;;11.96;91.88
71149;BME280;59072;42.144;25.200;2024-02-21T09:14:32;100926.44;;;12.04;90.80
71149;BME280;59072;42.144;25.200;2024-02-21T09:16:57;100935.91;;;12.14;86.90
71149;BME280;59072;42.144;25.200;2024-02-21T09:19:23;100919.84;;;12.27;90.86
71149;BME280;59072;42.144;25.200;2024-02-21T09:21:48;100918.97;;;12.46;88.93
71149;BME280;59072;42.144;25.200;2024-02-21T09:24:14;100890.66;;;12.12;88.18
71149;BME280;59072;42.144;25.200;2024-02-21T09:26:39;100915.22;;;12.61;85.32
71149;BME280;59072;42.144;25.200;2024-02-21T09:29:05;100921.34;;;12.68;85.98
71149;BME280;59072;42.144;25.200;2024-02-21T09:31:30;100904.53;;;12.54;85.50
71149;BME280;59072;42.144;25.200;2024-02-21T09:33:56;100918.03;;;12.79;82.72
71149;BME280;59072;42.144;25.200;2024-02-21T09:36:21;100899.41;;;12.98;84.03
71149;BME280;59072;42.144;25.200;2024-02-21T09:38:46;100917.78;;;13.33;81.36
71149;BME280;59072;42.144;25.200;2024-02-21T09:41:25;100922.06;;;12.95;80.70
71149;BME280;59072;42.144;25.200;2024-02-21T09:43:51;100908.69;;;13.34;76.33
71149;BME280;59072;42.144;25.200;2024-02-21T09:46:19;100905.41;;;13.63;71.17
71149;BME280;59072;42.144;25.200;2024-02-21T09:51:27;100905.06;;;13.53;70.71
71149;BME280;59072;42.144;25.200;2024-02-21T09:53:54;100915.84;;;13.72;68.59
71149;BME280;59072;42.144;25.200;2024-02-21T09:56:21;100924.28;;;13.43;67.59
71149;BME280;59072;42.144;25.200;2024-02-21T09:58:47;100915.72;;;13.85;68.99
71149;BME280;59072;42.144;25.200;2024-02-21T10:01:12;100920.94;;;14.23;66.98
71149;BME280;59072;42.144;25.200;2024-02-21T10:03:38;100905.59;;;14.12;70.18
71149;BME280;59072;42.144;25.200;2024-02-21T10:06:03;100909.75;;;14.08;66.83
71149;BME280;59072;42.144;25.200;2024-02-21T10:08:29;100906.16;;;14.58;65.34
71149;BME280;59072;42.144;25.200;2024-02-21T10:10:54;100904.63;;;14.80;62.29
71149;BME280;59072;42.144;25.200;2024-02-21T10:13:33;100882.19;;;14.75;63.27
71149;BME280;59072;42.144;25.200;2024-02-21T10:16:06;100905.41;;;15.30;60.05
71149;BME280;59072;42.144;25.200;2024-02-21T10:18:32;100905.56;;;15.58;58.85
71149;BME280;59072;42.144;25.200;2024-02-21T10:21:01;100906.56;;;15.76;54.26
71149;BME280;59072;42.144;25.200;2024-02-21T10:23:27;100878.84;;;15.87;55.19
71149;BME280;59072;42.144;25.200;2024-02-21T10:25:52;100879.28;;;15.60;54.18
71149;BME280;59072;42.144;25.200;2024-02-21T10:28:18;100890.50;;;16.28;47.16
71149;BME280;59072;42.144;25.200;2024-02-21T10:30:51;100869.38;;;16.08;49.39
71149;BME280;59072;42.144;25.200;2024-02-21T10:33:17;100851.69;;;15.53;47.26
71149;BME280;59072;42.144;25.200;2024-02-21T10:35:46;100844.44;;;15.42;50.66
71149;BME280;59072;42.144;25.200;2024-02-21T10:38:12;100861.97;;;15.56;52.54
71149;BME280;59072;42.144;25.200;2024-02-21T10:40:38;100840.75;;;16.02;49.63
71149;BME280;59072;42.144;25.200;2024-02-21T10:43:05;100856.25;;;16.12;46.67
71149;BME280;59072;42.144;25.200;2024-02-21T10:45:37;100842.94;;;16.05;43.32
71149;BME280;59072;42.144;25.200;2024-02-21T10:48:11;100850.28;;;16.10;43.08
71149;BME280;59072;42.144;25.200;2024-02-21T10:51:00;100845.75;;;16.51;41.66
71149;BME280;59072;42.144;25.200;2024-02-21T10:54:02;100839.53;;;16.62;42.08
71149;BME280;59072;42.144;25.200;2024-02-21T10:56:32;100821.13;;;16.59;42.13
71149;BME280;59072;42.144;25.200;2024-02-21T10:59:05;100822.00;;;16.76;41.29
71149;BME280;59072;42.144;25.200;2024-02-21T11:01:31;100818.44;;;16.59;42.90
71149;BME280;59072;42.144;25.200;2024-02-21T11:04:02;100816.88;;;16.46;41.47
71149;BME280;59072;42.144;25.200;2024-02-21T11:06:29;100818.63;;;16.81;43.61
71149;BME280;59072;42.144;25.200;2024-02-21T11:11:33;100820.81;;;17.13;40.54
71149;BME280;59072;42.144;25.200;2024-02-21T11:14:08;100816.72;;;17.44;40.83
71149;BME280;59072;42.144;25.200;2024-02-21T11:16:39;100792.13;;;17.23;39.01
71149;BME280;59072;42.144;25.200;2024-02-21T11:19:09;100804.53;;;17.07;39.15
71149;BME280;59072;42.144;25.200;2024-02-21T11:21:37;100798.16;;;16.68;39.09
71149;BME280;59072;42.144;25.200;2024-02-21T11:24:03;100804.19;;;16.87;38.93
71149;BME280;59072;42.144;25.200;2024-02-21T11:26:30;100795.94;;;16.65;38.26
71149;BME280;59072;42.144;25.200;2024-02-21T11:29:02;100791.56;;;17.21;37.52
71149;BME280;59072;42.144;25.200;2024-02-21T11:31:43;100785.19;;;18.00;36.27
71149;BME280;59072;42.144;25.200;2024-02-21T11:34:10;100790.75;;;18.16;35.49
71149;BME280;59072;42.144;25.200;2024-02-21T11:36:36;100769.59;;;18.07;36.02
71149;BME280;59072;42.144;25.200;2024-02-21T11:39:05;100755.94;;;18.41;34.98
71149;BME280;59072;42.144;25.200;2024-02-21T11:41:34;100780.06;;;18.26;35.98
71149;BME280;59072;42.144;25.200;2024-02-21T11:44:00;100782.63;;;17.94;35.65
71149;BME280;59072;42.144;25.200;2024-02-21T11:46:25;100774.44;;;17.66;35.75
71149;BME280;59072;42.144;25.200;2024-02-21T11:48:51;100755.75;;;17.60;35.11
71149;BME280;59072;42.144;25.200;2024-02-21T11:51:26;100767.59;;;17.98;34.13
71149;BME280;59072;42.144;25.200;2024-02-21T11:53:52;100763.91;;;18.80;34.73
71149;BME280;59072;42.144;25.200;2024-02-21T11:56:18;100774.81;;;18.91;31.90
71149;BME280;59072;42.144;25.200;2024-02-21T11:58:46;100764.66;;;18.76;30.46
71149;BME280;59072;42.144;25.200;2024-02-21T12:01:13;100753.75;;;18.93;30.32
71149;BME280;59072;42.144;25.200;2024-02-21T12:03:38;100754.41;;;18.51;32.31
71149;BME280;59072;42.144;25.200;2024-02-21T12:06:06;100753.44;;;19.21;30.17
71149;BME280;59072;42.144;25.200;2024-02-21T12:08:41;100755.81;;;19.55;31.96
71149;BME280;59072;42.144;25.200;2024-02-21T12:11:22;100729.25;;;19.04;31.60
71149;BME280;59072;42.144;25.200;2024-02-21T12:14:04;100750.19;;;19.19;31.10
71149;BME280;59072;42.144;25.200;2024-02-21T12:16:33;100737.72;;;18.54;31.02
71149;BME280;59072;42.144;25.200;2024-02-21T12:19:00;100732.56;;;18.79;30.45
71149;BME280;59072;42.144;25.200;2024-02-21T12:21:26;100740.53;;;19.34;30.51
71149;BME280;59072;42.144;25.200;2024-02-21T12:23:54;100728.63;;;19.30;28.47
71149;BME280;59072;42.144;25.200;2024-02-21T12:26:20;100745.78;;;19.51;28.88
71149;BME280;59072;42.144;25.200;2024-02-21T12:28:45;100733.88;;;19.09;29.16
71149;BME280;59072;42.144;25.200;2024-02-21T12:31:11;100735.09;;;19.71;28.79
71149;BME280;59072;42.144;25.200;2024-02-21T12:33:37;100726.00;;;19.93;27.48
71149;BME280;59072;42.144;25.200;2024-02-21T12:36:02;100739.38;;;20.25;27.08
71149;BME280;59072;42.144;25.200;2024-02-21T12:38:29;100740.75;;;20.53;27.33
71149;BME280;59072;42.144;25.200;2024-02-21T12:40:54;100736.19;;;21.15;26.42
71149;BME280;59072;42.144;25.200;2024-02-21T12:43:20;100730.69;;;21.66;25.40
71149;BME280;59072;42.144;25.200;2024-02-21T12:45:47;100730.50;;;21.22;25.82